Terminal Aerodrome Forecast
Issued by NWS Wilmington, NC

Home | Current Version | Previous Version | Text Only | Print | Product List | Glossary On
Versions: 1 2 3 4 5 6 7 8 9 10 11 12 13 14 15 16 17 18 19 20 21 22 23 24 25
000
FTUS42 KILM 191443 AAA
TAFMYR
TAF AMD
KMYR 191443Z 1915/2012 09012KT P6SM VCSH SCT025 BKN100
      TEMPO 1915/1916 BKN025
     FM191600 09010KT P6SM -SHRA BKN018
      TEMPO 1917/1920 3SM SHRA
     FM192000 14011G20KT 4SM SHRA SCT007 OVC018
     FM200200 18012KT 2SM -RA BR BKN007=

USA.gov is the U.S. government's official web portal to all federal, state and local government web resources and services.